sensor_id;sensor_type;location;lat;lon;timestamp;P1;durP1;ratioP1;P2;durP2;ratioP2
12459;SDS011;6295;49.452;8.466;2023-04-24T04:14:46;1.80;;;1.70;;
12459;SDS011;6295;49.452;8.466;2023-04-24T04:18:48;2.47;;;1.60;;
12459;SDS011;6295;49.452;8.466;2023-04-24T04:22:50;1.80;;;1.60;;
12459;SDS011;6295;49.452;8.466;2023-04-24T04:26:52;1.90;;;1.70;;
12459;SDS011;6295;49.452;8.466;2023-04-24T04:30:58;2.23;;;1.90;;
12459;SDS011;6295;49.452;8.466;2023-04-24T04:35:01;2.17;;;1.83;;
12459;SDS011;6295;49.452;8.466;2023-04-24T04:39:03;2.13;;;1.97;;
12459;SDS011;6295;49.452;8.466;2023-04-24T04:43:05;2.13;;;1.97;;
12459;SDS011;6295;49.452;8.466;2023-04-24T04:47:09;2.37;;;2.17;;
12459;SDS011;6295;49.452;8.466;2023-04-24T04:51:11;2.27;;;1.93;;
12459;SDS011;6295;49.452;8.466;2023-04-24T04:55:15;2.50;;;2.27;;
12459;SDS011;6295;49.452;8.466;2023-04-24T04:59:18;2.37;;;2.17;;
12459;SDS011;6295;49.452;8.466;2023-04-24T05:03:21;2.50;;;2.00;;
12459;SDS011;6295;49.452;8.466;2023-04-24T05:07:23;2.87;;;2.47;;
12459;SDS011;6295;49.452;8.466;2023-04-24T05:11:26;2.90;;;2.70;;
12459;SDS011;6295;49.452;8.466;2023-04-24T05:15:28;2.97;;;2.67;;
12459;SDS011;6295;49.452;8.466;2023-04-24T05:19:32;3.13;;;2.80;;
12459;SDS011;6295;49.452;8.466;2023-04-24T05:23:36;2.70;;;2.50;;
12459;SDS011;6295;49.452;8.466;2023-04-24T05:27:39;3.00;;;2.70;;
12459;SDS011;6295;49.452;8.466;2023-04-24T05:31:43;2.40;;;2.20;;
12459;SDS011;6295;49.452;8.466;2023-04-24T05:35:46;4.07;;;2.63;;
12459;SDS011;6295;49.452;8.466;2023-04-24T05:39:48;2.77;;;2.57;;
12459;SDS011;6295;49.452;8.466;2023-04-24T05:43:50;5.73;;;3.37;;
12459;SDS011;6295;49.452;8.466;2023-04-24T05:47:52;3.77;;;3.00;;
12459;SDS011;6295;49.452;8.466;2023-04-24T05:51:56;3.60;;;3.30;;
12459;SDS011;6295;49.452;8.466;2023-04-24T05:56:00;4.13;;;3.63;;
12459;SDS011;6295;49.452;8.466;2023-04-24T06:00:06;3.47;;;3.17;;
12459;SDS011;6295;49.452;8.466;2023-04-24T06:04:08;3.43;;;3.13;;
12459;SDS011;6295;49.452;8.466;2023-04-24T06:08:12;4.43;;;3.43;;
12459;SDS011;6295;49.452;8.466;2023-04-24T06:12:14;4.00;;;3.10;;
12459;SDS011;6295;49.452;8.466;2023-04-24T06:16:16;3.37;;;3.07;;
12459;SDS011;6295;49.452;8.466;2023-04-24T06:20:19;3.87;;;3.47;;
12459;SDS011;6295;49.452;8.466;2023-04-24T06:24:24;3.83;;;3.20;;
12459;SDS011;6295;49.452;8.466;2023-04-24T06:28:28;3.90;;;3.30;;
12459;SDS011;6295;49.452;8.466;2023-04-24T06:32:31;4.10;;;3.00;;
12459;SDS011;6295;49.452;8.466;2023-04-24T06:36:35;3.00;;;2.70;;
12459;SDS011;6295;49.452;8.466;2023-04-24T06:40:42;2.50;;;2.30;;
12459;SDS011;6295;49.452;8.466;2023-04-24T06:44:44;2.97;;;2.00;;
12459;SDS011;6295;49.452;8.466;2023-04-24T06:48:49;2.60;;;1.80;;
12459;SDS011;6295;49.452;8.466;2023-04-24T06:52:51;1.70;;;1.60;;
12459;SDS011;6295;49.452;8.466;2023-04-24T06:56:55;2.20;;;1.73;;
12459;SDS011;6295;49.452;8.466;2023-04-24T07:00:57;1.60;;;1.50;;
12459;SDS011;6295;49.452;8.466;2023-04-24T07:05:00;1.63;;;1.50;;
12459;SDS011;6295;49.452;8.466;2023-04-24T07:09:04;1.50;;;1.40;;
12459;SDS011;6295;49.452;8.466;2023-04-24T07:13:08;1.43;;;1.33;;
12459;SDS011;6295;49.452;8.466;2023-04-24T07:17:11;1.40;;;1.30;;
12459;SDS011;6295;49.452;8.466;2023-04-24T07:21:14;1.30;;;1.20;;
12459;SDS011;6295;49.452;8.466;2023-04-24T07:25:16;1.60;;;1.50;;
12459;SDS011;6295;49.452;8.466;2023-04-24T07:29:21;1.70;;;1.60;;
12459;SDS011;6295;49.452;8.466;2023-04-24T07:33:23;2.33;;;1.40;;
12459;SDS011;6295;49.452;8.466;2023-04-24T07:37:26;2.17;;;1.90;;
12459;SDS011;6295;49.452;8.466;2023-04-24T07:41:28;1.87;;;1.60;;
12459;SDS011;6295;49.452;8.466;2023-04-24T07:45:32;2.73;;;2.10;;
12459;SDS011;6295;49.452;8.466;2023-04-24T07:49:37;3.07;;;2.23;;
12459;SDS011;6295;49.452;8.466;2023-04-24T07:53:39;3.83;;;2.23;;
12459;SDS011;6295;49.452;8.466;2023-04-24T07:57:41;2.20;;;2.00;;
12459;SDS011;6295;49.452;8.466;2023-04-24T08:01:45;2.10;;;1.90;;
12459;SDS011;6295;49.452;8.466;2023-04-24T08:05:47;2.37;;;1.90;;
12459;SDS011;6295;49.452;8.466;2023-04-24T08:09:51;3.87;;;2.20;;
12459;SDS011;6295;49.452;8.466;2023-04-24T08:13:53;2.27;;;1.80;;
12459;SDS011;6295;49.452;8.466;2023-04-24T08:17:57;1.80;;;1.70;;
12459;SDS011;6295;49.452;8.466;2023-04-24T08:21:59;1.77;;;1.67;;
12459;SDS011;6295;49.452;8.466;2023-04-24T08:26:01;3.33;;;1.83;;
12459;SDS011;6295;49.452;8.466;2023-04-24T08:30:06;2.33;;;1.87;;
12459;SDS011;6295;49.452;8.466;2023-04-24T08:34:10;2.47;;;2.27;;
12459;SDS011;6295;49.452;8.466;2023-04-24T08:38:14;3.00;;;2.40;;
12459;SDS011;6295;49.452;8.466;2023-04-24T08:42:17;2.73;;;2.30;;
12459;SDS011;6295;49.452;8.466;2023-04-24T08:46:20;2.70;;;2.20;;
12459;SDS011;6295;49.452;8.466;2023-04-24T08:50:25;3.73;;;2.40;;
12459;SDS011;6295;49.452;8.466;2023-04-24T08:54:27;2.60;;;2.30;;
12459;SDS011;6295;49.452;8.466;2023-04-24T08:58:31;2.47;;;1.87;;
12459;SDS011;6295;49.452;8.466;2023-04-24T09:02:34;2.27;;;2.00;;
12459;SDS011;6295;49.452;8.466;2023-04-24T09:06:37;2.80;;;2.10;;
12459;SDS011;6295;49.452;8.466;2023-04-24T09:10:40;2.63;;;2.07;;
12459;SDS011;6295;49.452;8.466;2023-04-24T09:14:44;2.17;;;1.87;;
12459;SDS011;6295;49.452;8.466;2023-04-24T09:18:47;3.27;;;2.30;;
12459;SDS011;6295;49.452;8.466;2023-04-24T09:22:52;2.93;;;2.20;;
12459;SDS011;6295;49.452;8.466;2023-04-24T09:26:58;3.17;;;2.27;;
12459;SDS011;6295;49.452;8.466;2023-04-24T09:31:02;2.77;;;2.20;;
12459;SDS011;6295;49.452;8.466;2023-04-24T09:35:05;2.97;;;2.50;;
12459;SDS011;6295;49.452;8.466;2023-04-24T09:39:11;2.63;;;2.43;;
12459;SDS011;6295;49.452;8.466;2023-04-24T09:43:17;3.07;;;2.23;;
12459;SDS011;6295;49.452;8.466;2023-04-24T09:47:23;4.40;;;2.70;;
12459;SDS011;6295;49.452;8.466;2023-04-24T09:51:33;2.73;;;2.40;;
12459;SDS011;6295;49.452;8.466;2023-04-24T09:55:45;3.07;;;2.77;;
12459;SDS011;6295;49.452;8.466;2023-04-24T09:59:50;2.83;;;2.33;;
12459;SDS011;6295;49.452;8.466;2023-04-24T10:03:56;3.17;;;2.27;;
12459;SDS011;6295;49.452;8.466;2023-04-24T10:08:02;3.73;;;2.40;;
12459;SDS011;6295;49.452;8.466;2023-04-24T10:12:07;3.93;;;2.20;;
12459;SDS011;6295;49.452;8.466;2023-04-24T10:16:09;2.63;;;2.10;;
12459;SDS011;6295;49.452;8.466;2023-04-24T10:20:11;2.10;;;1.87;;
12459;SDS011;6295;49.452;8.466;2023-04-24T10:24:14;2.27;;;1.80;;
12459;SDS011;6295;49.452;8.466;2023-04-24T10:28:18;2.80;;;1.90;;
12459;SDS011;6295;49.452;8.466;2023-04-24T10:32:21;2.60;;;1.90;;
12459;SDS011;6295;49.452;8.466;2023-04-24T10:36:23;5.43;;;2.43;;
12459;SDS011;6295;49.452;8.466;2023-04-24T10:40:29;1.73;;;1.60;;
12459;SDS011;6295;49.452;8.466;2023-04-24T10:44:36;2.13;;;1.80;;
12459;SDS011;6295;49.452;8.466;2023-04-24T10:48:41;2.10;;;1.80;;
12459;SDS011;6295;49.452;8.466;2023-04-24T10:52:46;2.60;;;2.33;;
12459;SDS011;6295;49.452;8.466;2023-04-24T10:56:52;2.60;;;2.37;;
12459;SDS011;6295;49.452;8.466;2023-04-24T11:00:57;3.00;;;2.30;;
12459;SDS011;6295;49.452;8.466;2023-04-24T11:05:02;3.07;;;2.60;;
12459;SDS011;6295;49.452;8.466;2023-04-24T11:09:05;2.67;;;2.47;;
12459;SDS011;6295;49.452;8.466;2023-04-24T11:13:08;3.07;;;2.50;;
12459;SDS011;6295;49.452;8.466;2023-04-24T11:17:26;3.30;;;2.73;;
12459;SDS011;6295;49.452;8.466;2023-04-24T11:21:31;3.70;;;2.57;;
12459;SDS011;6295;49.452;8.466;2023-04-24T11:25:43;3.23;;;2.60;;
12459;SDS011;6295;49.452;8.466;2023-04-24T11:29:48;3.20;;;2.60;;
12459;SDS011;6295;49.452;8.466;2023-04-24T11:33:52;3.03;;;2.80;;
12459;SDS011;6295;49.452;8.466;2023-04-24T11:37:55;3.60;;;3.07;;
12459;SDS011;6295;49.452;8.466;2023-04-24T11:42:01;4.60;;;3.43;;
12459;SDS011;6295;49.452;8.466;2023-04-24T11:46:06;3.73;;;3.30;;
12459;SDS011;6295;49.452;8.466;2023-04-24T11:50:10;4.67;;;3.47;;
12459;SDS011;6295;49.452;8.466;2023-04-24T11:54:14;4.53;;;3.50;;
12459;SDS011;6295;49.452;8.466;2023-04-24T11:58:16;3.57;;;3.20;;
12459;SDS011;6295;49.452;8.466;2023-04-24T12:02:23;3.93;;;2.80;;
12459;SDS011;6295;49.452;8.466;2023-04-24T12:06:27;3.40;;;3.10;;
12459;SDS011;6295;49.452;8.466;2023-04-24T12:10:31;3.87;;;3.00;;
12459;SDS011;6295;49.452;8.466;2023-04-24T12:14:41;4.20;;;3.10;;
12459;SDS011;6295;49.452;8.466;2023-04-24T12:18:45;4.97;;;3.30;;
12459;SDS011;6295;49.452;8.466;2023-04-24T12:22:51;5.10;;;3.40;;
12459;SDS011;6295;49.452;8.466;2023-04-24T12:26:54;3.73;;;3.30;;
12459;SDS011;6295;49.452;8.466;2023-04-24T12:30:58;6.93;;;3.80;;
12459;SDS011;6295;49.452;8.466;2023-04-24T12:35:03;3.40;;;2.93;;
12459;SDS011;6295;49.452;8.466;2023-04-24T12:39:15;4.73;;;3.50;;
12459;SDS011;6295;49.452;8.466;2023-04-24T12:43:18;4.23;;;3.10;;
12459;SDS011;6295;49.452;8.466;2023-04-24T12:47:21;4.63;;;3.57;;
12459;SDS011;6295;49.452;8.466;2023-04-24T12:51:24;4.60;;;3.47;;
12459;SDS011;6295;49.452;8.466;2023-04-24T12:55:29;4.17;;;3.37;;
12459;SDS011;6295;49.452;8.466;2023-04-24T12:59:33;5.57;;;3.53;;
12459;SDS011;6295;49.452;8.466;2023-04-24T13:03:41;3.93;;;3.33;;
12459;SDS011;6295;49.452;8.466;2023-04-24T13:07:43;4.60;;;3.20;;
12459;SDS011;6295;49.452;8.466;2023-04-24T13:11:47;3.43;;;3.07;;
12459;SDS011;6295;49.452;8.466;2023-04-24T13:15:49;6.67;;;3.30;;
12459;SDS011;6295;49.452;8.466;2023-04-24T13:19:51;3.97;;;3.13;;
12459;SDS011;6295;49.452;8.466;2023-04-24T13:23:55;5.17;;;3.03;;
12459;SDS011;6295;49.452;8.466;2023-04-24T13:27:59;5.00;;;3.23;;
12459;SDS011;6295;49.452;8.466;2023-04-24T13:32:01;6.07;;;3.10;;
12459;SDS011;6295;49.452;8.466;2023-04-24T13:36:03;5.23;;;3.40;;
12459;SDS011;6295;49.452;8.466;2023-04-24T13:40:06;4.40;;;3.30;;
12459;SDS011;6295;49.452;8.466;2023-04-24T13:44:10;3.57;;;3.13;;
12459;SDS011;6295;49.452;8.466;2023-04-24T13:48:12;5.43;;;3.10;;
12459;SDS011;6295;49.452;8.466;2023-04-24T13:52:16;3.97;;;3.13;;
12459;SDS011;6295;49.452;8.466;2023-04-24T13:56:18;4.53;;;3.43;;
12459;SDS011;6295;49.452;8.466;2023-04-24T14:00:21;4.40;;;2.90;;
12459;SDS011;6295;49.452;8.466;2023-04-24T14:04:23;4.70;;;3.07;;
12459;SDS011;6295;49.452;8.466;2023-04-24T14:08:26;4.87;;;3.07;;
12459;SDS011;6295;49.452;8.466;2023-04-24T14:12:28;3.83;;;2.90;;
12459;SDS011;6295;49.452;8.466;2023-04-24T14:16:31;4.57;;;2.90;;
12459;SDS011;6295;49.452;8.466;2023-04-24T14:20:34;4.00;;;3.07;;
12459;SDS011;6295;49.452;8.466;2023-04-24T14:24:38;5.03;;;3.17;;
12459;SDS011;6295;49.452;8.466;2023-04-24T14:28:41;3.70;;;3.33;;
12459;SDS011;6295;49.452;8.466;2023-04-24T14:32:47;6.50;;;3.77;;
12459;SDS011;6295;49.452;8.466;2023-04-24T14:36:49;4.37;;;3.83;;
12459;SDS011;6295;49.452;8.466;2023-04-24T14:40:52;3.90;;;3.50;;
12459;SDS011;6295;49.452;8.466;2023-04-24T14:44:54;4.57;;;3.37;;
12459;SDS011;6295;49.452;8.466;2023-04-24T14:48:59;4.93;;;3.53;;
12459;SDS011;6295;49.452;8.466;2023-04-24T14:53:01;4.43;;;4.03;;
12459;SDS011;6295;49.452;8.466;2023-04-24T14:57:03;4.13;;;3.73;;
12459;SDS011;6295;49.452;8.466;2023-04-24T15:01:05;3.77;;;3.37;;
12459;SDS011;6295;49.452;8.466;2023-04-24T15:05:09;3.50;;;3.20;;
12459;SDS011;6295;49.452;8.466;2023-04-24T15:09:11;3.83;;;3.00;;
12459;SDS011;6295;49.452;8.466;2023-04-24T15:13:17;2.80;;;2.60;;
12459;SDS011;6295;49.452;8.466;2023-04-24T15:17:23;3.83;;;3.33;;
12459;SDS011;6295;49.452;8.466;2023-04-24T15:21:26;3.43;;;3.13;;
12459;SDS011;6295;49.452;8.466;2023-04-24T15:25:28;3.90;;;3.40;;
12459;SDS011;6295;49.452;8.466;2023-04-24T15:29:31;4.97;;;3.33;;
12459;SDS011;6295;49.452;8.466;2023-04-24T15:33:33;3.90;;;3.40;;
12459;SDS011;6295;49.452;8.466;2023-04-24T15:37:36;3.40;;;3.10;;
12459;SDS011;6295;49.452;8.466;2023-04-24T15:41:41;3.60;;;3.30;;
12459;SDS011;6295;49.452;8.466;2023-04-24T15:45:44;3.60;;;3.17;;
12459;SDS011;6295;49.452;8.466;2023-04-24T15:49:46;3.97;;;3.10;;
12459;SDS011;6295;49.452;8.466;2023-04-24T15:53:50;5.60;;;3.37;;
12459;SDS011;6295;49.452;8.466;2023-04-24T15:57:52;4.40;;;3.40;;
12459;SDS011;6295;49.452;8.466;2023-04-24T16:01:54;4.17;;;3.10;;
12459;SDS011;6295;49.452;8.466;2023-04-24T16:05:56;2.93;;;2.63;;
12459;SDS011;6295;49.452;8.466;2023-04-24T16:10:00;3.07;;;2.20;;
12459;SDS011;6295;49.452;8.466;2023-04-24T16:14:02;3.37;;;2.33;;
12459;SDS011;6295;49.452;8.466;2023-04-24T16:18:04;3.47;;;2.40;;
12459;SDS011;6295;49.452;8.466;2023-04-24T16:22:06;3.30;;;2.77;;
12459;SDS011;6295;49.452;8.466;2023-04-24T16:26:11;2.53;;;2.33;;
12459;SDS011;6295;49.452;8.466;2023-04-24T16:30:13;2.60;;;2.40;;
12459;SDS011;6295;49.452;8.466;2023-04-24T16:34:15;3.20;;;2.60;;
12459;SDS011;6295;49.452;8.466;2023-04-24T16:38:17;2.97;;;2.53;;
12459;SDS011;6295;49.452;8.466;2023-04-24T16:42:21;2.50;;;2.30;;
12459;SDS011;6295;49.452;8.466;2023-04-24T16:46:23;2.40;;;2.20;;
12459;SDS011;6295;49.452;8.466;2023-04-24T16:50:28;2.40;;;2.20;;
12459;SDS011;6295;49.452;8.466;2023-04-24T16:54:30;2.47;;;2.27;;
12459;SDS011;6295;49.452;8.466;2023-04-24T16:58:37;4.07;;;2.50;;
12459;SDS011;6295;49.452;8.466;2023-04-24T17:02:41;2.23;;;2.03;;
12459;SDS011;6295;49.452;8.466;2023-04-24T17:06:47;2.93;;;2.07;;
12459;SDS011;6295;49.452;8.466;2023-04-24T17:10:49;2.63;;;2.03;;
12459;SDS011;6295;49.452;8.466;2023-04-24T17:14:53;2.17;;;1.90;;
12459;SDS011;6295;49.452;8.466;2023-04-24T17:18:55;2.73;;;1.90;;
12459;SDS011;6295;49.452;8.466;2023-04-24T17:22:57;3.40;;;2.23;;
12459;SDS011;6295;49.452;8.466;2023-04-24T17:26:59;2.60;;;2.10;;
12459;SDS011;6295;49.452;8.466;2023-04-24T17:31:03;2.50;;;2.23;;
12459;SDS011;6295;49.452;8.466;2023-04-24T17:35:06;2.20;;;2.00;;
12459;SDS011;6295;49.452;8.466;2023-04-24T17:39:08;2.93;;;2.13;;
12459;SDS011;6295;49.452;8.466;2023-04-24T17:43:11;2.33;;;2.10;;
12459;SDS011;6295;49.452;8.466;2023-04-24T17:47:18;2.57;;;2.20;;
12459;SDS011;6295;49.452;8.466;2023-04-24T17:51:21;4.50;;;2.60;;
12459;SDS011;6295;49.452;8.466;2023-04-24T17:55:23;2.60;;;2.40;;
